sensor_id;sensor_type;location;lat;lon;timestamp;P1;durP1;ratioP1;P2;durP2;ratioP2
47762;SDS011;33526;42.690;23.322;2023-05-07T00:01:03;21.02;;;12.77;;
47762;SDS011;33526;42.690;23.322;2023-05-07T00:03:30;24.02;;;11.88;;
47762;SDS011;33526;42.690;23.322;2023-05-07T00:05:56;18.55;;;12.52;;
47762;SDS011;33526;42.690;23.322;2023-05-07T00:08:23;17.10;;;11.43;;
47762;SDS011;33526;42.690;23.322;2023-05-07T00:10:48;18.63;;;12.85;;
47762;SDS011;33526;42.690;23.322;2023-05-07T00:13:14;17.40;;;11.77;;
47762;SDS011;33526;42.690;23.322;2023-05-07T00:15:39;18.33;;;11.90;;
47762;SDS011;33526;42.690;23.322;2023-05-07T00:18:05;17.23;;;9.60;;
47762;SDS011;33526;42.690;23.322;2023-05-07T00:20:30;18.02;;;11.45;;
47762;SDS011;33526;42.690;23.322;2023-05-07T00:22:56;16.50;;;10.75;;
47762;SDS011;33526;42.690;23.322;2023-05-07T00:25:21;18.95;;;10.80;;
47762;SDS011;33526;42.690;23.322;2023-05-07T00:27:47;20.33;;;11.95;;
47762;SDS011;33526;42.690;23.322;2023-05-07T00:30:12;17.75;;;11.23;;
47762;SDS011;33526;42.690;23.322;2023-05-07T00:32:38;19.38;;;11.85;;
47762;SDS011;33526;42.690;23.322;2023-05-07T00:35:04;19.83;;;11.55;;
47762;SDS011;33526;42.690;23.322;2023-05-07T00:37:30;25.92;;;12.77;;
47762;SDS011;33526;42.690;23.322;2023-05-07T00:39:56;20.00;;;11.95;;
47762;SDS011;33526;42.690;23.322;2023-05-07T00:42:21;20.77;;;12.48;;
47762;SDS011;33526;42.690;23.322;2023-05-07T00:44:47;20.92;;;13.32;;
47762;SDS011;33526;42.690;23.322;2023-05-07T00:47:12;20.63;;;12.38;;
47762;SDS011;33526;42.690;23.322;2023-05-07T00:49:39;22.70;;;14.15;;
47762;SDS011;33526;42.690;23.322;2023-05-07T00:52:07;16.30;;;11.93;;
47762;SDS011;33526;42.690;23.322;2023-05-07T00:54:34;22.38;;;12.73;;
47762;SDS011;33526;42.690;23.322;2023-05-07T00:57:01;21.08;;;12.88;;
47762;SDS011;33526;42.690;23.322;2023-05-07T00:59:27;24.25;;;12.43;;
47762;SDS011;33526;42.690;23.322;2023-05-07T01:01:53;24.52;;;12.35;;
47762;SDS011;33526;42.690;23.322;2023-05-07T01:04:18;24.33;;;12.60;;
47762;SDS011;33526;42.690;23.322;2023-05-07T01:06:44;18.92;;;12.20;;
47762;SDS011;33526;42.690;23.322;2023-05-07T01:09:10;21.67;;;12.32;;
47762;SDS011;33526;42.690;23.322;2023-05-07T01:11:37;19.25;;;12.68;;
47762;SDS011;33526;42.690;23.322;2023-05-07T01:14:04;22.45;;;11.63;;
47762;SDS011;33526;42.690;23.322;2023-05-07T01:16:30;17.33;;;11.35;;
47762;SDS011;33526;42.690;23.322;2023-05-07T01:18:56;21.83;;;11.23;;
47762;SDS011;33526;42.690;23.322;2023-05-07T01:21:24;18.38;;;11.48;;
47762;SDS011;33526;42.690;23.322;2023-05-07T01:23:51;21.90;;;12.05;;
47762;SDS011;33526;42.690;23.322;2023-05-07T01:28:44;21.63;;;11.32;;
47762;SDS011;33526;42.690;23.322;2023-05-07T01:31:10;22.55;;;10.27;;
47762;SDS011;33526;42.690;23.322;2023-05-07T01:33:38;19.55;;;10.80;;
47762;SDS011;33526;42.690;23.322;2023-05-07T01:36:06;18.85;;;10.55;;
47762;SDS011;33526;42.690;23.322;2023-05-07T01:38:33;18.75;;;10.80;;
47762;SDS011;33526;42.690;23.322;2023-05-07T01:41:01;22.75;;;10.45;;
47762;SDS011;33526;42.690;23.322;2023-05-07T01:43:27;15.73;;;10.30;;
47762;SDS011;33526;42.690;23.322;2023-05-07T01:45:54;21.30;;;10.85;;
47762;SDS011;33526;42.690;23.322;2023-05-07T01:48:20;15.73;;;9.48;;
47762;SDS011;33526;42.690;23.322;2023-05-07T01:50:46;14.27;;;8.68;;
47762;SDS011;33526;42.690;23.322;2023-05-07T01:53:12;15.50;;;8.27;;
47762;SDS011;33526;42.690;23.322;2023-05-07T01:55:38;12.45;;;7.78;;
47762;SDS011;33526;42.690;23.322;2023-05-07T01:58:05;14.77;;;7.35;;
47762;SDS011;33526;42.690;23.322;2023-05-07T02:00:30;11.68;;;7.72;;
47762;SDS011;33526;42.690;23.322;2023-05-07T02:02:56;13.48;;;8.30;;
47762;SDS011;33526;42.690;23.322;2023-05-07T02:05:22;12.00;;;7.97;;
47762;SDS011;33526;42.690;23.322;2023-05-07T02:07:48;11.65;;;7.55;;
47762;SDS011;33526;42.690;23.322;2023-05-07T02:10:13;14.20;;;7.57;;
47762;SDS011;33526;42.690;23.322;2023-05-07T02:12:40;12.80;;;7.68;;
47762;SDS011;33526;42.690;23.322;2023-05-07T02:15:05;13.52;;;7.65;;
47762;SDS011;33526;42.690;23.322;2023-05-07T02:17:31;13.88;;;7.00;;
47762;SDS011;33526;42.690;23.322;2023-05-07T02:19:58;14.75;;;7.72;;
47762;SDS011;33526;42.690;23.322;2023-05-07T02:22:23;11.90;;;8.10;;
47762;SDS011;33526;42.690;23.322;2023-05-07T02:24:49;17.35;;;7.78;;
47762;SDS011;33526;42.690;23.322;2023-05-07T02:27:14;14.25;;;7.35;;
47762;SDS011;33526;42.690;23.322;2023-05-07T02:29:40;11.35;;;7.45;;
47762;SDS011;33526;42.690;23.322;2023-05-07T02:32:05;11.48;;;7.43;;
47762;SDS011;33526;42.690;23.322;2023-05-07T02:34:31;10.80;;;7.15;;
47762;SDS011;33526;42.690;23.322;2023-05-07T02:36:56;10.10;;;6.63;;
47762;SDS011;33526;42.690;23.322;2023-05-07T02:39:21;12.65;;;7.78;;
47762;SDS011;33526;42.690;23.322;2023-05-07T02:41:47;13.85;;;8.13;;
47762;SDS011;33526;42.690;23.322;2023-05-07T02:44:12;14.13;;;9.20;;
47762;SDS011;33526;42.690;23.322;2023-05-07T02:46:38;12.30;;;9.20;;
47762;SDS011;33526;42.690;23.322;2023-05-07T02:49:03;12.95;;;9.00;;
47762;SDS011;33526;42.690;23.322;2023-05-07T02:51:29;16.45;;;8.95;;
47762;SDS011;33526;42.690;23.322;2023-05-07T02:53:55;17.33;;;9.57;;
47762;SDS011;33526;42.690;23.322;2023-05-07T02:56:21;13.18;;;8.25;;
47762;SDS011;33526;42.690;23.322;2023-05-07T02:58:47;12.68;;;8.57;;
47762;SDS011;33526;42.690;23.322;2023-05-07T03:01:12;18.08;;;9.57;;
47762;SDS011;33526;42.690;23.322;2023-05-07T03:03:39;13.53;;;8.73;;
47762;SDS011;33526;42.690;23.322;2023-05-07T03:06:04;15.48;;;9.10;;
47762;SDS011;33526;42.690;23.322;2023-05-07T03:08:31;13.10;;;9.55;;
47762;SDS011;33526;42.690;23.322;2023-05-07T03:10:57;13.50;;;9.40;;
47762;SDS011;33526;42.690;23.322;2023-05-07T03:13:23;14.32;;;9.73;;
47762;SDS011;33526;42.690;23.322;2023-05-07T03:15:48;18.10;;;10.52;;
47762;SDS011;33526;42.690;23.322;2023-05-07T03:18:14;18.40;;;12.30;;
47762;SDS011;33526;42.690;23.322;2023-05-07T03:20:39;19.50;;;11.45;;
47762;SDS011;33526;42.690;23.322;2023-05-07T03:23:04;16.90;;;11.32;;
47762;SDS011;33526;42.690;23.322;2023-05-07T03:25:31;15.82;;;9.55;;
47762;SDS011;33526;42.690;23.322;2023-05-07T03:27:57;15.10;;;9.95;;
47762;SDS011;33526;42.690;23.322;2023-05-07T03:30:22;14.48;;;10.02;;
47762;SDS011;33526;42.690;23.322;2023-05-07T03:32:47;14.45;;;10.23;;
47762;SDS011;33526;42.690;23.322;2023-05-07T03:35:13;15.27;;;10.40;;
47762;SDS011;33526;42.690;23.322;2023-05-07T03:37:39;14.00;;;9.73;;
47762;SDS011;33526;42.690;23.322;2023-05-07T03:40:05;17.45;;;10.55;;
47762;SDS011;33526;42.690;23.322;2023-05-07T03:42:31;10.68;;;7.80;;
47762;SDS011;33526;42.690;23.322;2023-05-07T03:44:57;18.00;;;9.60;;
47762;SDS011;33526;42.690;23.322;2023-05-07T03:47:22;16.90;;;11.07;;
47762;SDS011;33526;42.690;23.322;2023-05-07T03:49:47;18.35;;;10.30;;
47762;SDS011;33526;42.690;23.322;2023-05-07T03:52:14;15.23;;;10.03;;
47762;SDS011;33526;42.690;23.322;2023-05-07T03:54:39;16.08;;;9.80;;
47762;SDS011;33526;42.690;23.322;2023-05-07T03:57:05;17.27;;;11.05;;
47762;SDS011;33526;42.690;23.322;2023-05-07T03:59:30;18.50;;;11.32;;
47762;SDS011;33526;42.690;23.322;2023-05-07T04:01:56;16.90;;;10.13;;
47762;SDS011;33526;42.690;23.322;2023-05-07T04:04:21;15.18;;;9.73;;
47762;SDS011;33526;42.690;23.322;2023-05-07T04:06:46;16.05;;;9.82;;
47762;SDS011;33526;42.690;23.322;2023-05-07T04:09:12;17.55;;;10.35;;
47762;SDS011;33526;42.690;23.322;2023-05-07T04:11:37;17.48;;;9.88;;
47762;SDS011;33526;42.690;23.322;2023-05-07T04:16:30;19.90;;;10.52;;
47762;SDS011;33526;42.690;23.322;2023-05-07T04:18:55;14.90;;;8.73;;
47762;SDS011;33526;42.690;23.322;2023-05-07T04:21:21;17.95;;;9.20;;
47762;SDS011;33526;42.690;23.322;2023-05-07T04:23:46;14.35;;;9.45;;
47762;SDS011;33526;42.690;23.322;2023-05-07T04:26:13;12.70;;;8.73;;
47762;SDS011;33526;42.690;23.322;2023-05-07T04:28:39;13.73;;;8.90;;
47762;SDS011;33526;42.690;23.322;2023-05-07T04:31:05;12.32;;;8.45;;
47762;SDS011;33526;42.690;23.322;2023-05-07T04:33:31;12.25;;;8.35;;
47762;SDS011;33526;42.690;23.322;2023-05-07T04:35:57;16.13;;;9.05;;
47762;SDS011;33526;42.690;23.322;2023-05-07T04:38:27;14.63;;;8.55;;
47762;SDS011;33526;42.690;23.322;2023-05-07T04:40:53;12.23;;;8.70;;
47762;SDS011;33526;42.690;23.322;2023-05-07T04:43:19;16.58;;;9.10;;
47762;SDS011;33526;42.690;23.322;2023-05-07T04:45:45;13.02;;;8.60;;
47762;SDS011;33526;42.690;23.322;2023-05-07T04:48:11;14.45;;;8.57;;
47762;SDS011;33526;42.690;23.322;2023-05-07T04:50:36;17.95;;;9.27;;
47762;SDS011;33526;42.690;23.322;2023-05-07T04:53:02;18.33;;;9.65;;
47762;SDS011;33526;42.690;23.322;2023-05-07T04:55:28;14.10;;;9.50;;
47762;SDS011;33526;42.690;23.322;2023-05-07T04:57:53;13.40;;;9.20;;
47762;SDS011;33526;42.690;23.322;2023-05-07T05:00:18;16.23;;;9.55;;
47762;SDS011;33526;42.690;23.322;2023-05-07T05:02:44;11.95;;;9.02;;
47762;SDS011;33526;42.690;23.322;2023-05-07T05:05:10;14.30;;;9.95;;
47762;SDS011;33526;42.690;23.322;2023-05-07T05:07:39;13.60;;;9.05;;
47762;SDS011;33526;42.690;23.322;2023-05-07T05:10:07;13.50;;;10.27;;
47762;SDS011;33526;42.690;23.322;2023-05-07T05:12:33;15.07;;;9.85;;
47762;SDS011;33526;42.690;23.322;2023-05-07T05:14:58;14.02;;;10.07;;
47762;SDS011;33526;42.690;23.322;2023-05-07T05:17:23;15.20;;;10.45;;
47762;SDS011;33526;42.690;23.322;2023-05-07T05:19:49;14.80;;;10.27;;
47762;SDS011;33526;42.690;23.322;2023-05-07T05:22:14;17.77;;;10.27;;
47762;SDS011;33526;42.690;23.322;2023-05-07T05:24:40;15.38;;;10.15;;
47762;SDS011;33526;42.690;23.322;2023-05-07T05:27:05;11.98;;;9.05;;
47762;SDS011;33526;42.690;23.322;2023-05-07T05:29:31;17.92;;;10.40;;
47762;SDS011;33526;42.690;23.322;2023-05-07T05:31:56;13.23;;;9.77;;
47762;SDS011;33526;42.690;23.322;2023-05-07T05:34:22;16.45;;;10.48;;
47762;SDS011;33526;42.690;23.322;2023-05-07T05:36:47;16.63;;;10.10;;
47762;SDS011;33526;42.690;23.322;2023-05-07T05:39:13;13.02;;;9.73;;
47762;SDS011;33526;42.690;23.322;2023-05-07T05:41:39;14.32;;;10.13;;
47762;SDS011;33526;42.690;23.322;2023-05-07T05:44:05;22.10;;;11.07;;
47762;SDS011;33526;42.690;23.322;2023-05-07T05:46:31;14.68;;;10.07;;
47762;SDS011;33526;42.690;23.322;2023-05-07T05:48:56;16.80;;;11.07;;
47762;SDS011;33526;42.690;23.322;2023-05-07T05:51:21;16.17;;;10.75;;
47762;SDS011;33526;42.690;23.322;2023-05-07T05:53:47;14.30;;;11.25;;
47762;SDS011;33526;42.690;23.322;2023-05-07T05:56:12;16.05;;;9.75;;
47762;SDS011;33526;42.690;23.322;2023-05-07T05:58:38;16.00;;;9.95;;
47762;SDS011;33526;42.690;23.322;2023-05-07T06:01:03;14.15;;;9.55;;
47762;SDS011;33526;42.690;23.322;2023-05-07T06:03:30;17.80;;;11.25;;
47762;SDS011;33526;42.690;23.322;2023-05-07T06:05:55;16.25;;;10.80;;
47762;SDS011;33526;42.690;23.322;2023-05-07T06:08:21;13.80;;;10.60;;
47762;SDS011;33526;42.690;23.322;2023-05-07T06:10:46;17.10;;;10.10;;
47762;SDS011;33526;42.690;23.322;2023-05-07T06:13:12;14.57;;;10.65;;
47762;SDS011;33526;42.690;23.322;2023-05-07T06:15:37;17.63;;;11.20;;
47762;SDS011;33526;42.690;23.322;2023-05-07T06:18:02;16.13;;;10.73;;
47762;SDS011;33526;42.690;23.322;2023-05-07T06:20:28;16.25;;;11.95;;
47762;SDS011;33526;42.690;23.322;2023-05-07T06:22:53;15.20;;;11.23;;
47762;SDS011;33526;42.690;23.322;2023-05-07T06:25:18;18.02;;;10.95;;
47762;SDS011;33526;42.690;23.322;2023-05-07T06:27:44;16.85;;;11.05;;
47762;SDS011;33526;42.690;23.322;2023-05-07T06:30:09;17.35;;;11.50;;
47762;SDS011;33526;42.690;23.322;2023-05-07T06:32:36;17.17;;;10.45;;
47762;SDS011;33526;42.690;23.322;2023-05-07T06:35:01;12.93;;;9.90;;
47762;SDS011;33526;42.690;23.322;2023-05-07T06:37:27;14.00;;;10.63;;
47762;SDS011;33526;42.690;23.322;2023-05-07T06:39:52;14.20;;;10.00;;
47762;SDS011;33526;42.690;23.322;2023-05-07T06:42:17;14.25;;;10.18;;
47762;SDS011;33526;42.690;23.322;2023-05-07T06:44:43;16.13;;;11.57;;
47762;SDS011;33526;42.690;23.322;2023-05-07T06:47:08;14.70;;;10.70;;
47762;SDS011;33526;42.690;23.322;2023-05-07T06:49:34;15.95;;;10.05;;
47762;SDS011;33526;42.690;23.322;2023-05-07T06:51:59;15.27;;;10.52;;
47762;SDS011;33526;42.690;23.322;2023-05-07T06:54:25;15.85;;;9.32;;
47762;SDS011;33526;42.690;23.322;2023-05-07T06:56:50;14.82;;;9.13;;
47762;SDS011;33526;42.690;23.322;2023-05-07T06:59:15;13.38;;;9.50;;
47762;SDS011;33526;42.690;23.322;2023-05-07T07:01:41;15.20;;;9.95;;
47762;SDS011;33526;42.690;23.322;2023-05-07T07:04:06;17.08;;;10.45;;
47762;SDS011;33526;42.690;23.322;2023-05-07T07:06:32;16.88;;;11.15;;
47762;SDS011;33526;42.690;23.322;2023-05-07T07:08:58;18.20;;;11.38;;
47762;SDS011;33526;42.690;23.322;2023-05-07T07:11:24;14.70;;;10.85;;
47762;SDS011;33526;42.690;23.322;2023-05-07T07:13:49;18.90;;;11.60;;
47762;SDS011;33526;42.690;23.322;2023-05-07T07:16:15;16.50;;;11.93;;
47762;SDS011;33526;42.690;23.322;2023-05-07T07:18:41;15.38;;;11.13;;
47762;SDS011;33526;42.690;23.322;2023-05-07T07:21:06;16.77;;;11.98;;
47762;SDS011;33526;42.690;23.322;2023-05-07T07:23:32;15.52;;;10.95;;
47762;SDS011;33526;42.690;23.322;2023-05-07T07:25:57;16.52;;;10.88;;
47762;SDS011;33526;42.690;23.322;2023-05-07T07:28:23;14.95;;;10.68;;
47762;SDS011;33526;42.690;23.322;2023-05-07T07:30:48;15.65;;;10.70;;
47762;SDS011;33526;42.690;23.322;2023-05-07T07:33:14;14.10;;;10.60;;
47762;SDS011;33526;42.690;23.322;2023-05-07T07:35:40;16.50;;;11.45;;
47762;SDS011;33526;42.690;23.322;2023-05-07T07:38:05;13.50;;;10.30;;
47762;SDS011;33526;42.690;23.322;2023-05-07T07:40:31;13.93;;;10.05;;
47762;SDS011;33526;42.690;23.322;2023-05-07T07:42:57;18.15;;;10.02;;
47762;SDS011;33526;42.690;23.322;2023-05-07T07:45:22;15.68;;;10.00;;
47762;SDS011;33526;42.690;23.322;2023-05-07T07:47:48;17.55;;;10.50;;
47762;SDS011;33526;42.690;23.322;2023-05-07T07:50:13;12.07;;;9.70;;
47762;SDS011;33526;42.690;23.322;2023-05-07T07:52:39;14.05;;;9.40;;
47762;SDS011;33526;42.690;23.322;2023-05-07T07:55:04;14.50;;;10.15;;
47762;SDS011;33526;42.690;23.322;2023-05-07T07:57:30;19.23;;;9.50;;
47762;SDS011;33526;42.690;23.322;2023-05-07T07:59:56;14.63;;;9.88;;
47762;SDS011;33526;42.690;23.322;2023-05-07T08:02:21;15.43;;;9.25;;
47762;SDS011;33526;42.690;23.322;2023-05-07T08:04:47;14.23;;;9.63;;
47762;SDS011;33526;42.690;23.322;2023-05-07T08:07:12;18.70;;;12.00;;
47762;SDS011;33526;42.690;23.322;2023-05-07T08:09:38;13.57;;;9.70;;
47762;SDS011;33526;42.690;23.322;2023-05-07T08:12:07;14.57;;;9.60;;
47762;SDS011;33526;42.690;23.322;2023-05-07T08:14:33;12.10;;;9.30;;
47762;SDS011;33526;42.690;23.322;2023-05-07T08:16:59;17.88;;;8.38;;
47762;SDS011;33526;42.690;23.322;2023-05-07T08:19:25;13.50;;;9.73;;
47762;SDS011;33526;42.690;23.322;2023-05-07T08:21:50;14.20;;;9.43;;
47762;SDS011;33526;42.690;23.322;2023-05-07T08:24:16;12.50;;;8.82;;
47762;SDS011;33526;42.690;23.322;2023-05-07T08:26:43;17.42;;;9.65;;
47762;SDS011;33526;42.690;23.322;2023-05-07T08:29:08;13.73;;;9.60;;
47762;SDS011;33526;42.690;23.322;2023-05-07T08:31:34;17.58;;;10.25;;
47762;SDS011;33526;42.690;23.322;2023-05-07T08:33:59;10.13;;;7.65;;
47762;SDS011;33526;42.690;23.322;2023-05-07T08:36:25;15.00;;;8.85;;
47762;SDS011;33526;42.690;23.322;2023-05-07T08:38:51;9.75;;;7.13;;
47762;SDS011;33526;42.690;23.322;2023-05-07T08:41:17;10.20;;;7.00;;
47762;SDS011;33526;42.690;23.322;2023-05-07T08:43:42;16.80;;;7.13;;
47762;SDS011;33526;42.690;23.322;2023-05-07T08:46:21;9.50;;;6.47;;
47762;SDS011;33526;42.690;23.322;2023-05-07T08:48:50;7.75;;;6.18;;
47762;SDS011;33526;42.690;23.322;2023-05-07T08:51:17;9.18;;;5.57;;
47762;SDS011;33526;42.690;23.322;2023-05-07T08:53:44;11.02;;;5.75;;
47762;SDS011;33526;42.690;23.322;2023-05-07T08:56:11;9.85;;;6.38;;
47762;SDS011;33526;42.690;23.322;2023-05-07T08:58:37;8.73;;;5.25;;
47762;SDS011;33526;42.690;23.322;2023-05-07T09:01:03;10.48;;;6.22;;
47762;SDS011;33526;42.690;23.322;2023-05-07T09:03:33;7.45;;;5.55;;
47762;SDS011;33526;42.690;23.322;2023-05-07T09:05:58;10.75;;;5.88;;
47762;SDS011;33526;42.690;23.322;2023-05-07T09:08:27;8.52;;;6.10;;
47762;SDS011;33526;42.690;23.322;2023-05-07T09:10:52;13.38;;;7.25;;
47762;SDS011;33526;42.690;23.322;2023-05-07T09:13:18;8.95;;;6.53;;
47762;SDS011;33526;42.690;23.322;2023-05-07T09:15:45;7.13;;;5.40;;
47762;SDS011;33526;42.690;23.322;2023-05-07T09:18:10;8.50;;;5.22;;
47762;SDS011;33526;42.690;23.322;2023-05-07T09:20:37;12.50;;;5.25;;
47762;SDS011;33526;42.690;23.322;2023-05-07T09:23:02;9.95;;;5.53;;
47762;SDS011;33526;42.690;23.322;2023-05-07T09:25:31;13.00;;;5.55;;
47762;SDS011;33526;42.690;23.322;2023-05-07T09:27:57;8.13;;;4.68;;
47762;SDS011;33526;42.690;23.322;2023-05-07T09:30:31;6.22;;;4.82;;
47762;SDS011;33526;42.690;23.322;2023-05-07T09:33:00;8.80;;;4.82;;
47762;SDS011;33526;42.690;23.322;2023-05-07T09:35:27;10.57;;;6.53;;
47762;SDS011;33526;42.690;23.322;2023-05-07T09:37:53;18.83;;;14.60;;
47762;SDS011;33526;42.690;23.322;2023-05-07T09:40:24;15.80;;;10.50;;
47762;SDS011;33526;42.690;23.322;2023-05-07T09:42:54;8.55;;;5.05;;
47762;SDS011;33526;42.690;23.322;2023-05-07T09:47:54;4.10;;;3.30;;
47762;SDS011;33526;42.690;23.322;2023-05-07T09:50:27;5.63;;;3.88;;
47762;SDS011;33526;42.690;23.322;2023-05-07T09:52:55;4.97;;;4.25;;
47762;SDS011;33526;42.690;23.322;2023-05-07T09:55:22;6.97;;;4.22;;
47762;SDS011;33526;42.690;23.322;2023-05-07T09:57:51;25.52;;;12.07;;
47762;SDS011;33526;42.690;23.322;2023-05-07T10:00:21;10.55;;;4.80;;
47762;SDS011;33526;42.690;23.322;2023-05-07T10:02:51;3.58;;;3.20;;
47762;SDS011;33526;42.690;23.322;2023-05-07T10:05:21;10.23;;;4.00;;
47762;SDS011;33526;42.690;23.322;2023-05-07T10:07:47;5.15;;;4.00;;
47762;SDS011;33526;42.690;23.322;2023-05-07T10:10:13;6.53;;;4.37;;
47762;SDS011;33526;42.690;23.322;2023-05-07T10:15:06;5.40;;;3.80;;
47762;SDS011;33526;42.690;23.322;2023-05-07T10:17:36;6.47;;;2.90;;
47762;SDS011;33526;42.690;23.322;2023-05-07T10:20:03;5.43;;;3.28;;
47762;SDS011;33526;42.690;23.322;2023-05-07T10:22:32;4.78;;;3.85;;
47762;SDS011;33526;42.690;23.322;2023-05-07T10:25:11;5.13;;;3.03;;
47762;SDS011;33526;42.690;23.322;2023-05-07T10:27:41;4.28;;;3.00;;
47762;SDS011;33526;42.690;23.322;2023-05-07T10:32:47;5.45;;;3.10;;
47762;SDS011;33526;42.690;23.322;2023-05-07T10:35:17;4.35;;;2.88;;
47762;SDS011;33526;42.690;23.322;2023-05-07T10:37:46;4.05;;;3.10;;
47762;SDS011;33526;42.690;23.322;2023-05-07T10:40:13;6.68;;;3.47;;
47762;SDS011;33526;42.690;23.322;2023-05-07T10:42:39;4.60;;;3.08;;
47762;SDS011;33526;42.690;23.322;2023-05-07T10:45:18;4.68;;;3.35;;
47762;SDS011;33526;42.690;23.322;2023-05-07T10:50:41;3.92;;;3.20;;
47762;SDS011;33526;42.690;23.322;2023-05-07T11:00:59;7.05;;;3.50;;
47762;SDS011;33526;42.690;23.322;2023-05-07T11:03:25;4.68;;;3.20;;
47762;SDS011;33526;42.690;23.322;2023-05-07T11:06:10;10.48;;;3.30;;
47762;SDS011;33526;42.690;23.322;2023-05-07T11:11:20;6.57;;;3.50;;
47762;SDS011;33526;42.690;23.322;2023-05-07T11:17:08;8.30;;;6.15;;
47762;SDS011;33526;42.690;23.322;2023-05-07T11:19:53;5.40;;;3.17;;
47762;SDS011;33526;42.690;23.322;2023-05-07T11:25:02;4.20;;;3.17;;
47762;SDS011;33526;42.690;23.322;2023-05-07T11:27:29;6.38;;;3.25;;
47762;SDS011;33526;42.690;23.322;2023-05-07T11:29:55;9.18;;;3.85;;
47762;SDS011;33526;42.690;23.322;2023-05-07T11:32:24;5.10;;;3.30;;
47762;SDS011;33526;42.690;23.322;2023-05-07T11:34:51;4.13;;;3.08;;
47762;SDS011;33526;42.690;23.322;2023-05-07T11:37:21;4.63;;;3.17;;
47762;SDS011;33526;42.690;23.322;2023-05-07T11:42:28;5.35;;;3.47;;
47762;SDS011;33526;42.690;23.322;2023-05-07T11:44:55;6.35;;;3.53;;
47762;SDS011;33526;42.690;23.322;2023-05-07T11:47:21;7.05;;;3.30;;
47762;SDS011;33526;42.690;23.322;2023-05-07T11:49:50;4.07;;;2.90;;
47762;SDS011;33526;42.690;23.322;2023-05-07T11:52:17;6.18;;;3.38;;
47762;SDS011;33526;42.690;23.322;2023-05-07T11:54:53;4.93;;;3.10;;
47762;SDS011;33526;42.690;23.322;2023-05-07T11:57:20;3.88;;;2.80;;
47762;SDS011;33526;42.690;23.322;2023-05-07T11:59:46;5.00;;;3.08;;
47762;SDS011;33526;42.690;23.322;2023-05-07T12:02:16;6.75;;;3.20;;
47762;SDS011;33526;42.690;23.322;2023-05-07T12:04:42;6.35;;;3.00;;
47762;SDS011;33526;42.690;23.322;2023-05-07T12:07:15;3.20;;;2.53;;
47762;SDS011;33526;42.690;23.322;2023-05-07T12:09:41;3.83;;;2.75;;
47762;SDS011;33526;42.690;23.322;2023-05-07T12:12:07;5.10;;;2.60;;
47762;SDS011;33526;42.690;23.322;2023-05-07T12:14:32;3.00;;;2.70;;
47762;SDS011;33526;42.690;23.322;2023-05-07T12:17:02;2.92;;;2.63;;
47762;SDS011;33526;42.690;23.322;2023-05-07T12:19:31;5.27;;;3.30;;
47762;SDS011;33526;42.690;23.322;2023-05-07T12:21:56;6.85;;;3.00;;
47762;SDS011;33526;42.690;23.322;2023-05-07T12:24:22;4.55;;;2.42;;
47762;SDS011;33526;42.690;23.322;2023-05-07T12:26:48;2.30;;;2.10;;
47762;SDS011;33526;42.690;23.322;2023-05-07T12:29:14;3.47;;;2.22;;
47762;SDS011;33526;42.690;23.322;2023-05-07T12:31:42;3.42;;;2.28;;
47762;SDS011;33526;42.690;23.322;2023-05-07T12:34:10;2.50;;;2.30;;
47762;SDS011;33526;42.690;23.322;2023-05-07T12:36:36;5.82;;;2.47;;
47762;SDS011;33526;42.690;23.322;2023-05-07T12:39:04;2.42;;;2.03;;
47762;SDS011;33526;42.690;23.322;2023-05-07T12:41:34;4.00;;;2.63;;
47762;SDS011;33526;42.690;23.322;2023-05-07T12:44:03;8.23;;;3.45;;
47762;SDS011;33526;42.690;23.322;2023-05-07T12:46:30;5.25;;;2.50;;
47762;SDS011;33526;42.690;23.322;2023-05-07T12:48:55;3.88;;;2.85;;
47762;SDS011;33526;42.690;23.322;2023-05-07T12:51:21;4.72;;;2.85;;
47762;SDS011;33526;42.690;23.322;2023-05-07T12:53:47;3.47;;;2.38;;
47762;SDS011;33526;42.690;23.322;2023-05-07T12:56:12;4.55;;;2.30;;
47762;SDS011;33526;42.690;23.322;2023-05-07T12:58:40;5.20;;;3.25;;
47762;SDS011;33526;42.690;23.322;2023-05-07T13:01:06;5.35;;;4.20;;
47762;SDS011;33526;42.690;23.322;2023-05-07T13:03:35;5.40;;;2.20;;
47762;SDS011;33526;42.690;23.322;2023-05-07T13:06:02;2.45;;;2.13;;
47762;SDS011;33526;42.690;23.322;2023-05-07T13:08:36;4.53;;;2.47;;
47762;SDS011;33526;42.690;23.322;2023-05-07T13:11:06;5.38;;;2.90;;
47762;SDS011;33526;42.690;23.322;2023-05-07T13:13:33;3.55;;;2.83;;
47762;SDS011;33526;42.690;23.322;2023-05-07T13:16:03;8.20;;;6.35;;
47762;SDS011;33526;42.690;23.322;2023-05-07T13:18:30;6.75;;;4.93;;
47762;SDS011;33526;42.690;23.322;2023-05-07T13:20:56;3.75;;;3.08;;
47762;SDS011;33526;42.690;23.322;2023-05-07T13:23:22;3.38;;;2.55;;
47762;SDS011;33526;42.690;23.322;2023-05-07T13:25:48;3.63;;;2.47;;
47762;SDS011;33526;42.690;23.322;2023-05-07T13:28:14;2.85;;;2.53;;
47762;SDS011;33526;42.690;23.322;2023-05-07T13:30:48;4.72;;;2.63;;
47762;SDS011;33526;42.690;23.322;2023-05-07T13:33:17;4.80;;;2.60;;
47762;SDS011;33526;42.690;23.322;2023-05-07T13:35:43;3.85;;;2.55;;
47762;SDS011;33526;42.690;23.322;2023-05-07T13:38:09;6.13;;;3.22;;
47762;SDS011;33526;42.690;23.322;2023-05-07T13:40:35;9.23;;;2.40;;
47762;SDS011;33526;42.690;23.322;2023-05-07T13:43:00;2.75;;;2.28;;
47762;SDS011;33526;42.690;23.322;2023-05-07T13:45:29;6.60;;;2.85;;
47762;SDS011;33526;42.690;23.322;2023-05-07T13:47:55;7.93;;;2.75;;
47762;SDS011;33526;42.690;23.322;2023-05-07T13:50:21;2.72;;;2.42;;
47762;SDS011;33526;42.690;23.322;2023-05-07T13:52:47;4.25;;;3.00;;
47762;SDS011;33526;42.690;23.322;2023-05-07T13:55:19;4.40;;;2.97;;
47762;SDS011;33526;42.690;23.322;2023-05-07T13:57:45;7.07;;;3.25;;
47762;SDS011;33526;42.690;23.322;2023-05-07T14:00:12;3.87;;;2.63;;
47762;SDS011;33526;42.690;23.322;2023-05-07T14:02:38;2.80;;;2.50;;
47762;SDS011;33526;42.690;23.322;2023-05-07T14:05:04;7.88;;;5.80;;
47762;SDS011;33526;42.690;23.322;2023-05-07T14:07:29;4.25;;;2.80;;
47762;SDS011;33526;42.690;23.322;2023-05-07T14:09:56;3.53;;;2.80;;
47762;SDS011;33526;42.690;23.322;2023-05-07T14:12:22;6.68;;;2.90;;
47762;SDS011;33526;42.690;23.322;2023-05-07T14:14:47;12.98;;;2.75;;
47762;SDS011;33526;42.690;23.322;2023-05-07T14:17:14;5.18;;;2.92;;
47762;SDS011;33526;42.690;23.322;2023-05-07T14:19:41;3.97;;;2.65;;
47762;SDS011;33526;42.690;23.322;2023-05-07T14:22:06;6.20;;;2.70;;
47762;SDS011;33526;42.690;23.322;2023-05-07T14:24:31;3.83;;;2.60;;
47762;SDS011;33526;42.690;23.322;2023-05-07T14:26:57;3.25;;;2.60;;
47762;SDS011;33526;42.690;23.322;2023-05-07T14:29:22;2.90;;;2.45;;
47762;SDS011;33526;42.690;23.322;2023-05-07T14:31:48;8.80;;;4.63;;
47762;SDS011;33526;42.690;23.322;2023-05-07T14:34:13;4.63;;;2.55;;
47762;SDS011;33526;42.690;23.322;2023-05-07T14:36:39;3.38;;;2.47;;
47762;SDS011;33526;42.690;23.322;2023-05-07T14:39:04;10.65;;;6.00;;
47762;SDS011;33526;42.690;23.322;2023-05-07T14:41:30;4.40;;;3.38;;
47762;SDS011;33526;42.690;23.322;2023-05-07T14:43:56;5.03;;;3.53;;
47762;SDS011;33526;42.690;23.322;2023-05-07T14:46:24;5.00;;;3.30;;
47762;SDS011;33526;42.690;23.322;2023-05-07T14:48:50;2.97;;;2.20;;
47762;SDS011;33526;42.690;23.322;2023-05-07T14:51:16;5.45;;;2.58;;